Time;durP1;ratioP1;P1;durP2;ratioP2;P2;SDS_P1;SDS_P2;PMS_P1;PMS_P2;Temp;Humidity;BMP_temperature;BMP_pressure;BME280_temperature;BME280_humidity;BME280_pressure;Samples;Min_cycle;Max_cycle;Signal;HPM_P1;HPM_P2
2022/12/21 00:00:54;;;;;;;4.38;3.95;;;17.00;48.90;;;;;;5064290;27;46642;-77
2022/12/21 00:03:21;;;;;;;4.70;4.25;;;17.00;48.90;;;;;;5064278;27;45352;-77
2022/12/21 00:05:47;;;;;;;4.90;4.05;;;17.00;48.80;;;;;;5064080;27;45153;-77
2022/12/21 00:08:14;;;;;;;5.30;4.32;;;17.00;48.80;;;;;;5061782;28;45182;-77
2022/12/21 00:10:41;;;;;;;4.10;3.70;;;17.00;48.90;;;;;;5064396;28;45196;-77
2022/12/21 00:13:08;;;;;;;4.35;3.88;;;17.00;48.80;;;;;;5064256;27;45321;-77
2022/12/21 00:15:35;;;;;;;4.32;3.65;;;17.00;48.90;;;;;;5064973;27;45235;-77
2022/12/21 00:18:03;;;;;;;5.35;4.20;;;17.00;49.00;;;;;;5064522;28;45478;-77
2022/12/21 00:20:30;;;;;;;4.43;3.53;;;17.00;48.80;;;;;;5061682;28;45173;-77
2022/12/21 00:22:57;;;;;;;4.68;4.15;;;17.00;48.80;;;;;;5064447;27;45211;-77
2022/12/21 00:25:24;;;;;;;4.95;3.72;;;17.00;48.90;;;;;;5064203;27;45362;-77
2022/12/21 00:27:51;;;;;;;3.75;3.40;;;17.00;48.90;;;;;;5064383;28;45308;-77
2022/12/21 00:30:18;;;;;;;3.20;2.97;;;17.00;48.90;;;;;;5063932;27;45831;-77
2022/12/21 00:32:46;;;;;;;4.20;3.80;;;17.00;48.90;;;;;;5064043;28;45287;-77
2022/12/21 00:35:14;;;;;;;3.67;3.38;;;17.00;48.90;;;;;;5064285;28;45462;-77
2022/12/21 00:37:41;;;;;;;3.50;3.20;;;17.00;48.90;;;;;;5064789;28;45228;-77
2022/12/21 00:40:09;;;;;;;3.42;3.13;;;17.00;48.90;;;;;;5063949;27;45201;-78
2022/12/21 00:42:36;;;;;;;3.55;3.25;;;17.00;48.90;;;;;;5063787;27;45255;-77
2022/12/21 00:45:02;;;;;;;3.70;3.38;;;17.00;48.90;;;;;;5063806;27;45219;-77
2022/12/21 00:47:29;;;;;;;3.47;3.08;;;17.00;48.90;;;;;;5064677;27;45457;-77
2022/12/21 00:49:56;;;;;;;3.53;3.20;;;16.90;48.90;;;;;;5062973;28;47620;-78
2022/12/21 00:52:24;;;;;;;3.75;3.45;;;16.90;48.90;;;;;;5063976;27;45306;-77
2022/12/21 00:54:51;;;;;;;3.67;3.15;;;16.90;48.90;;;;;;5062667;28;45202;-77
2022/12/21 00:57:18;;;;;;;3.58;2.78;;;16.90;48.90;;;;;;5064087;27;45394;-77
2022/12/21 00:59:45;;;;;;;4.22;3.42;;;16.90;48.90;;;;;;5063604;27;46397;-76
2022/12/21 01:02:11;;;;;;;3.67;3.20;;;16.90;48.90;;;;;;5063511;28;45249;-77
2022/12/21 01:04:38;;;;;;;3.80;3.40;;;16.90;48.90;;;;;;5063710;27;45249;-77
2022/12/21 01:07:05;;;;;;;3.20;2.90;;;16.90;48.90;;;;;;5063854;28;45250;-76
2022/12/21 01:09:33;;;;;;;3.28;2.90;;;16.90;48.90;;;;;;5063739;28;46546;-77
2022/12/21 01:12:00;;;;;;;4.82;2.80;;;16.90;48.90;;;;;;5063510;27;45467;-77
2022/12/21 01:14:27;;;;;;;2.97;2.78;;;16.90;49.50;;;;;;5061086;28;45425;-76
2022/12/21 01:16:54;;;;;;;3.08;2.78;;;16.90;48.90;;;;;;5063659;27;45168;-77
2022/12/21 01:19:21;;;;;;;3.20;2.90;;;16.90;49.50;;;;;;5063309;28;46410;-77
2022/12/21 01:21:47;;;;;;;3.60;2.83;;;16.90;48.90;;;;;;5063191;28;45484;-77
2022/12/21 01:24:14;;;;;;;2.90;2.70;;;16.90;48.90;;;;;;5063460;27;45305;-77
2022/12/21 01:26:43;;;;;;;2.92;2.72;;;16.90;48.90;;;;;;5063300;28;45324;-77
2022/12/21 01:29:11;;;;;;;2.75;2.55;;;16.90;48.90;;;;;;5063191;28;45732;-77
2022/12/21 01:31:38;;;;;;;2.75;2.55;;;16.90;48.90;;;;;;5062939;28;45301;-77
2022/12/21 01:34:05;;;;;;;3.50;2.50;;;16.90;48.90;;;;;;5062743;28;45277;-77
2022/12/21 01:36:31;;;;;;;4.28;2.70;;;16.90;48.90;;;;;;5063406;28;45256;-77
2022/12/21 01:38:58;;;;;;;3.05;2.35;;;16.90;48.90;;;;;;5062843;28;46401;-77
2022/12/21 01:41:26;;;;;;;3.00;2.70;;;16.90;49.00;;;;;;5063193;28;45319;-77
2022/12/21 01:43:55;;;;;;;3.97;2.53;;;16.90;48.90;;;;;;5063465;28;45321;-76
2022/12/21 01:46:24;;;;;;;3.42;2.50;;;16.90;48.90;;;;;;5063115;27;45361;-77
2022/12/21 01:48:54;;;;;;;3.63;2.60;;;16.90;48.90;;;;;;5062912;28;47297;-77
2022/12/21 01:51:21;;;;;;;2.60;2.40;;;16.90;48.90;;;;;;5062758;27;45340;-76
2022/12/21 01:53:50;;;;;;;2.50;2.30;;;16.90;48.90;;;;;;5063022;28;45153;-77
2022/12/21 01:56:18;;;;;;;3.58;2.55;;;16.90;48.90;;;;;;5063315;27;45267;-77
2022/12/21 01:58:45;;;;;;;2.60;2.40;;;16.80;48.90;;;;;;5062643;27;46911;-77
2022/12/21 02:01:13;;;;;;;2.60;2.40;;;16.80;48.80;;;;;;5062561;28;45256;-77
2022/12/21 02:03:41;;;;;;;2.60;2.40;;;16.80;48.90;;;;;;5062913;27;45118;-77
2022/12/21 02:06:09;;;;;;;3.65;2.30;;;16.80;48.90;;;;;;5064846;27;45237;-77
2022/12/21 02:08:36;;;;;;;2.55;2.20;;;16.80;48.80;;;;;;5065946;28;47415;-77
2022/12/21 02:11:03;;;;;;;2.50;2.30;;;16.80;48.90;;;;;;5066036;27;45196;-78
2022/12/21 02:13:30;;;;;;;2.50;2.28;;;16.80;48.80;;;;;;5065868;27;45126;-78
2022/12/21 02:16:24;;;;;;;2.00;1.77;;;16.80;48.90;;;;;;5066337;28;45242;-77
2022/12/21 02:19:12;;;;;;;2.13;1.98;;;16.80;48.90;;;;;;5070112;27;46483;-77
2022/12/21 02:21:39;;;;;;;2.47;2.20;;;16.80;48.90;;;;;;5073308;27;45305;-77
2022/12/21 02:24:33;;;;;;;2.13;2.03;;;16.80;48.90;;;;;;5065943;27;45383;-77
2022/12/21 02:27:14;;;;;;;1.90;1.80;;;16.80;48.90;;;;;;5065452;28;45398;-78
2022/12/21 02:30:06;;;;;;;2.30;2.10;;;16.80;48.90;;;;;;5065607;27;47582;-77
2022/12/21 02:32:45;;;;;;;2.05;1.85;;;16.80;48.90;;;;;;5065468;27;45257;-78
2022/12/21 02:35:16;;;;;;;2.30;1.90;;;16.80;48.90;;;;;;5065818;27;45194;-77
2022/12/21 02:37:46;;;;;;;2.80;2.13;;;16.80;49.00;;;;;;5065808;28;45193;-77
2022/12/21 02:40:18;;;;;;;2.33;1.80;;;16.80;48.90;;;;;;5065320;27;45485;-77
2022/12/21 02:45:34;;;;;;;2.30;1.83;;;16.80;48.90;;;;;;5066107;28;45204;-77
2022/12/21 02:48:05;;;;;;;2.72;1.88;;;16.80;49.00;;;;;;5065781;28;45472;-77
2022/12/21 02:50:34;;;;;;;2.13;1.92;;;16.80;49.00;;;;;;5065181;28;46340;-77
2022/12/21 02:53:02;;;;;;;1.92;1.83;;;16.80;49.00;;;;;;5065211;28;45282;-77
2022/12/21 02:55:28;;;;;;;2.20;2.00;;;16.80;49.60;;;;;;5065459;28;45201;-77
2022/12/21 02:58:14;;;;;;;2.08;1.83;;;16.80;49.00;;;;;;5065598;27;45457;-77
2022/12/21 03:00:45;;;;;;;1.80;1.70;;;16.80;49.00;;;;;;5065188;28;46596;-77
2022/12/21 03:06:11;;;;;;;1.83;1.73;;;16.80;49.00;;;;;;5065666;28;45198;-77
2022/12/21 03:08:43;;;;;;;1.90;1.80;;;16.80;49.00;;;;;;5065416;28;45132;-77
2022/12/21 03:11:10;;;;;;;1.92;1.77;;;16.80;49.00;;;;;;5065099;27;46935;-77
2022/12/21 03:13:42;;;;;;;1.48;1.38;;;16.80;49.00;;;;;;5065075;28;45186;-77
2022/12/21 03:16:13;;;;;;;1.92;1.73;;;16.80;49.00;;;;;;5065200;28;45139;-77
2022/12/21 03:18:44;;;;;;;2.05;1.90;;;16.80;49.00;;;;;;5064550;28;45295;-77
2022/12/21 03:21:13;;;;;;;1.83;1.73;;;16.80;49.10;;;;;;5064860;28;46642;-77
2022/12/21 03:23:41;;;;;;;2.17;1.98;;;16.80;49.00;;;;;;5064982;28;45281;-77
2022/12/21 03:26:10;;;;;;;1.70;1.60;;;16.80;49.10;;;;;;5064979;28;45284;-77
2022/12/21 03:28:38;;;;;;;1.67;1.58;;;16.80;49.10;;;;;;5065366;28;45167;-76
2022/12/21 03:31:06;;;;;;;2.03;1.65;;;16.80;49.10;;;;;;5064266;27;45483;-77
2022/12/21 03:33:34;;;;;;;1.70;1.60;;;16.80;49.00;;;;;;5064823;28;45220;-77
2022/12/21 03:36:03;;;;;;;1.70;1.60;;;16.80;49.00;;;;;;5065057;28;45188;-77
2022/12/21 03:38:32;;;;;;;2.45;1.50;;;16.70;49.00;;;;;;5065321;28;45297;-77
2022/12/21 03:41:00;;;;;;;1.40;1.30;;;16.70;49.00;;;;;;5064533;27;45187;-77
2022/12/21 03:43:28;;;;;;;1.40;1.30;;;16.70;49.00;;;;;;5064587;28;45124;-77
2022/12/21 03:45:56;;;;;;;1.50;1.40;;;16.80;49.00;;;;;;5064910;27;45319;-77
2022/12/21 03:48:24;;;;;;;1.40;1.30;;;16.80;49.10;;;;;;5064986;27;45410;-77
2022/12/21 03:50:51;;;;;;;1.60;1.50;;;16.80;49.00;;;;;;5064567;27;46637;-77
2022/12/21 03:53:23;;;;;;;1.70;1.50;;;16.80;49.10;;;;;;5064599;27;45171;-77
2022/12/21 03:55:50;;;;;;;1.60;1.50;;;16.70;49.00;;;;;;5064837;27;45353;-76
2022/12/21 03:58:17;;;;;;;1.50;1.40;;;16.70;49.00;;;;;;5065082;27;45290;-77
2022/12/21 04:00:45;;;;;;;2.35;1.40;;;16.70;49.10;;;;;;5064809;28;47536;-77
2022/12/21 04:03:15;;;;;;;1.50;1.40;;;16.70;49.10;;;;;;5064839;27;45286;-77
2022/12/21 04:05:45;;;;;;;1.40;1.30;;;16.70;49.00;;;;;;5064912;28;45187;-76
2022/12/21 04:08:11;;;;;;;1.58;1.42;;;16.70;49.00;;;;;;5064565;27;45288;-76
2022/12/21 04:10:40;;;;;;;1.70;1.23;;;16.70;49.00;;;;;;5064468;27;46310;-77
2022/12/21 04:13:05;;;;;;;1.40;1.30;;;16.70;49.10;;;;;;5064435;28;45169;-77
2022/12/21 04:18:13;;;;;;;1.52;1.35;;;16.70;49.10;;;;;;5064505;27;45340;-77
2022/12/21 04:20:39;;;;;;;1.48;1.38;;;16.70;49.20;;;;;;5063956;27;45413;-77
2022/12/21 04:28:35;;;;;;;1.40;1.30;;;16.70;49.10;;;;;;5061887;28;45270;-76
2022/12/21 04:31:02;;;;;;;1.40;1.30;;;16.70;49.10;;;;;;5064189;28;47566;-76
2022/12/21 04:33:30;;;;;;;1.77;1.40;;;16.70;49.20;;;;;;5063218;28;45274;-77
2022/12/21 04:38:42;;;;;;;1.30;1.20;;;16.70;49.20;;;;;;5060998;28;45301;-77
2022/12/21 04:41:10;;;;;;;1.23;1.20;;;16.70;49.20;;;;;;5063996;27;45368;-77
2022/12/21 04:43:37;;;;;;;1.40;1.30;;;16.70;49.20;;;;;;5064196;28;45241;-77
2022/12/21 04:46:05;;;;;;;0.90;0.90;;;16.70;49.80;;;;;;5063989;28;45228;-77
2022/12/21 04:48:32;;;;;;;1.45;1.30;;;16.70;49.20;;;;;;5064456;28;45429;-77
2022/12/21 04:51:03;;;;;;;1.00;1.00;;;16.70;49.20;;;;;;5063737;27;45389;-77
2022/12/21 04:53:30;;;;;;;1.52;1.00;;;16.70;49.20;;;;;;5063992;27;45247;-77
2022/12/21 04:55:57;;;;;;;1.45;1.35;;;16.70;49.20;;;;;;5063901;27;45241;-77
2022/12/21 04:58:25;;;;;;;1.10;1.00;;;16.70;49.20;;;;;;5064105;28;45305;-77
2022/12/21 05:00:52;;;;;;;2.30;1.40;;;16.70;49.20;;;;;;5063773;27;45837;-77
2022/12/21 05:03:20;;;;;;;1.40;1.30;;;16.70;49.20;;;;;;5063959;27;45200;-77
2022/12/21 05:05:47;;;;;;;1.45;1.35;;;16.70;49.20;;;;;;5063635;28;45296;-77
2022/12/21 05:08:14;;;;;;;1.30;1.20;;;16.70;49.20;;;;;;5063954;28;45278;-77
2022/12/21 05:10:41;;;;;;;1.80;1.17;;;16.70;49.20;;;;;;5063598;27;45460;-77
2022/12/21 05:13:07;;;;;;;1.27;1.17;;;16.70;49.20;;;;;;5063539;27;45231;-77
2022/12/21 05:15:37;;;;;;;1.13;1.02;;;16.70;49.30;;;;;;5063635;27;45280;-77
2022/12/21 05:18:04;;;;;;;2.10;1.10;;;16.70;49.30;;;;;;5064104;28;45335;-77
2022/12/21 05:20:31;;;;;;;1.00;1.00;;;16.70;49.30;;;;;;5060747;28;45263;-77
2022/12/21 05:22:58;;;;;;;1.48;1.17;;;16.70;49.30;;;;;;5062939;28;45243;-76
2022/12/21 05:25:25;;;;;;;1.00;1.00;;;16.70;49.30;;;;;;5062786;28;45292;-77
2022/12/21 05:27:51;;;;;;;1.00;0.98;;;16.70;49.40;;;;;;5063264;27;45273;-77
2022/12/21 05:30:18;;;;;;;1.13;1.10;;;16.70;49.40;;;;;;5063183;28;45520;-77
2022/12/21 05:32:47;;;;;;;1.88;1.23;;;16.60;49.40;;;;;;5063352;27;45248;-77
2022/12/21 05:35:13;;;;;;;1.05;0.95;;;16.60;49.40;;;;;;5063378;28;45124;-77
2022/12/21 05:37:40;;;;;;;0.93;0.93;;;16.60;49.40;;;;;;5063395;28;45224;-77
2022/12/21 05:40:08;;;;;;;0.82;0.80;;;16.60;49.40;;;;;;5063805;27;46434;-77
2022/12/21 05:42:35;;;;;;;1.38;1.00;;;16.60;49.40;;;;;;5066372;27;45245;-76
2022/12/21 05:45:02;;;;;;;2.05;1.10;;;16.60;49.40;;;;;;5066441;27;45154;-76
2022/12/21 05:47:29;;;;;;;1.20;1.08;;;16.60;49.40;;;;;;5066560;28;45121;-77
2022/12/21 05:49:57;;;;;;;1.30;1.20;;;16.60;49.40;;;;;;5066238;27;46492;-77
2022/12/21 05:52:24;;;;;;;0.95;0.95;;;16.60;49.50;;;;;;5065962;27;45400;-76
2022/12/21 05:54:51;;;;;;;0.80;0.80;;;16.60;49.40;;;;;;5066234;27;45133;-77
2022/12/21 05:57:18;;;;;;;1.00;1.00;;;16.60;49.40;;;;;;5066507;27;45500;-76
2022/12/21 05:59:44;;;;;;;1.55;1.10;;;16.60;49.40;;;;;;5065895;27;45473;-77
2022/12/21 06:02:11;;;;;;;2.35;1.05;;;16.60;49.50;;;;;;5065664;27;45397;-77
2022/12/21 06:04:38;;;;;;;1.23;0.80;;;16.70;49.40;;;;;;5065771;28;45379;-76
2022/12/21 06:07:07;;;;;;;0.90;0.90;;;16.80;49.30;;;;;;5065512;27;45349;-77
2022/12/21 06:09:34;;;;;;;0.90;0.90;;;16.90;49.10;;;;;;5065871;27;45739;-77
2022/12/21 06:12:00;;;;;;;0.80;0.80;;;16.90;48.90;;;;;;5065986;27;45419;-77
2022/12/21 06:14:27;;;;;;;1.48;1.15;;;17.00;48.80;;;;;;5066102;28;45423;-77
2022/12/21 06:16:54;;;;;;;0.90;0.90;;;17.00;48.50;;;;;;5065754;27;45599;-77
2022/12/21 06:19:21;;;;;;;0.88;0.88;;;17.10;48.40;;;;;;5065591;27;45325;-77
2022/12/21 06:21:48;;;;;;;0.77;0.77;;;17.10;48.40;;;;;;5065769;27;45320;-76
2022/12/21 06:24:16;;;;;;;1.08;0.98;;;17.20;48.20;;;;;;5066200;27;45183;-77
2022/12/21 06:26:43;;;;;;;0.90;0.90;;;17.30;48.20;;;;;;5065804;27;45432;-77
2022/12/21 06:29:10;;;;;;;1.15;0.82;;;17.30;48.10;;;;;;5065266;27;46353;-77
2022/12/21 06:31:37;;;;;;;1.10;1.00;;;17.30;48.10;;;;;;5065310;27;45278;-77
2022/12/21 06:34:04;;;;;;;1.02;1.00;;;17.30;48.00;;;;;;5065594;27;45199;-77
2022/12/21 06:36:32;;;;;;;1.48;1.38;;;17.40;48.60;;;;;;5065756;28;45353;-75
2022/12/21 06:38:58;;;;;;;0.90;0.90;;;17.40;48.00;;;;;;5065287;28;46607;-77
2022/12/21 06:41:27;;;;;;;1.10;1.00;;;17.40;48.00;;;;;;5065550;28;45304;-76
2022/12/21 06:43:54;;;;;;;1.25;1.00;;;17.40;48.00;;;;;;5065572;28;45244;-77
2022/12/21 06:46:20;;;;;;;0.98;0.98;;;17.40;47.90;;;;;;5065367;27;45321;-77
2022/12/21 06:48:47;;;;;;;1.25;0.80;;;17.40;48.00;;;;;;5065094;27;45443;-77
2022/12/21 06:51:15;;;;;;;1.13;1.10;;;17.40;48.00;;;;;;5061509;28;45433;-77
2022/12/21 06:53:43;;;;;;;0.90;0.85;;;17.40;48.00;;;;;;5064708;28;45278;-76
2022/12/21 06:56:10;;;;;;;1.00;0.90;;;17.40;48.00;;;;;;5065866;28;45353;-77
2022/12/21 06:58:39;;;;;;;1.00;0.90;;;17.40;48.00;;;;;;5065229;27;46412;-77
2022/12/21 07:01:06;;;;;;;1.42;1.00;;;17.40;48.10;;;;;;5065521;28;45227;-77
2022/12/21 07:03:33;;;;;;;1.42;1.00;;;17.40;48.10;;;;;;5065389;27;45225;-76
2022/12/21 07:06:00;;;;;;;0.80;0.80;;;17.40;48.20;;;;;;5065576;28;45187;-76
2022/12/21 07:08:27;;;;;;;0.85;0.80;;;17.40;48.20;;;;;;5064941;27;46328;-77
2022/12/21 07:10:56;;;;;;;1.02;0.80;;;17.40;48.20;;;;;;5065075;28;45308;-77
2022/12/21 07:13:24;;;;;;;0.70;0.70;;;17.30;48.20;;;;;;5065459;27;45211;-77
2022/12/21 07:15:52;;;;;;;1.00;0.98;;;17.30;48.20;;;;;;5065665;28;45340;-77
2022/12/21 07:18:19;;;;;;;0.82;0.82;;;17.30;48.30;;;;;;5065305;28;45520;-76
2022/12/21 07:20:46;;;;;;;0.80;0.80;;;17.30;48.30;;;;;;5065006;28;45181;-77
2022/12/21 07:23:12;;;;;;;1.08;1.08;;;17.30;48.30;;;;;;5065056;28;45170;-77
2022/12/21 07:25:39;;;;;;;0.77;0.77;;;17.30;48.30;;;;;;5065121;27;45172;-77
2022/12/21 07:28:06;;;;;;;0.85;0.85;;;17.30;48.40;;;;;;5064824;27;46409;-76
2022/12/21 07:30:33;;;;;;;0.90;0.90;;;17.30;48.50;;;;;;5065259;28;45320;-77
2022/12/21 07:33:01;;;;;;;0.98;0.90;;;17.30;48.40;;;;;;5062692;28;45298;-76
2022/12/21 07:35:28;;;;;;;0.90;0.90;;;17.30;48.50;;;;;;5064373;28;45245;-77
2022/12/21 07:37:55;;;;;;;1.13;0.93;;;17.30;48.50;;;;;;5064713;28;46603;-77
2022/12/21 07:40:21;;;;;;;0.93;0.82;;;17.30;48.50;;;;;;5064838;27;45264;-77
2022/12/21 07:42:48;;;;;;;1.27;0.98;;;17.30;48.50;;;;;;5062245;28;45357;-77
2022/12/21 07:45:15;;;;;;;1.20;1.10;;;17.30;48.50;;;;;;5065057;28;45370;-77
2022/12/21 07:47:42;;;;;;;0.98;0.93;;;17.30;48.50;;;;;;5064605;28;46935;-77
2022/12/21 07:50:10;;;;;;;1.20;1.10;;;17.20;48.50;;;;;;5064789;27;45122;-77
2022/12/21 07:52:38;;;;;;;1.00;1.00;;;17.20;48.50;;;;;;5064937;27;45239;-77
2022/12/21 07:55:06;;;;;;;1.20;1.08;;;17.20;48.50;;;;;;5064938;28;45435;-77
2022/12/21 07:57:33;;;;;;;1.20;1.10;;;17.20;48.50;;;;;;5064600;27;46831;-77
2022/12/21 07:59:59;;;;;;;1.45;1.20;;;17.20;48.50;;;;;;5064616;27;45144;-77
2022/12/21 08:02:26;;;;;;;1.25;1.17;;;17.20;48.60;;;;;;5064957;27;45334;-77
2022/12/21 08:04:53;;;;;;;1.20;1.10;;;17.20;48.60;;;;;;5064555;27;45228;-77
2022/12/21 08:07:21;;;;;;;1.23;1.15;;;17.20;48.70;;;;;;5064462;27;45350;-77
2022/12/21 08:09:48;;;;;;;0.93;0.93;;;17.20;48.60;;;;;;5064359;27;45266;-77
2022/12/21 08:12:15;;;;;;;1.50;1.40;;;17.20;48.70;;;;;;5064594;28;45259;-78
2022/12/21 08:14:42;;;;;;;1.58;1.45;;;17.20;48.70;;;;;;5064545;28;45467;-77
2022/12/21 08:17:09;;;;;;;1.95;1.10;;;17.20;48.70;;;;;;5061279;28;45519;-76
2022/12/21 08:19:36;;;;;;;1.48;1.30;;;17.20;48.70;;;;;;5063663;28;45439;-77
2022/12/21 08:22:03;;;;;;;1.30;1.20;;;17.10;48.60;;;;;;5063913;27;45223;-77
2022/12/21 08:24:31;;;;;;;1.40;1.30;;;17.10;48.70;;;;;;5063262;27;45205;-78
2022/12/21 08:26:58;;;;;;;1.20;1.10;;;17.10;48.70;;;;;;5063907;28;45541;-78
2022/12/21 08:29:25;;;;;;;2.33;1.30;;;17.10;48.70;;;;;;5064139;28;45317;-78
2022/12/21 08:31:51;;;;;;;1.35;1.23;;;17.10;48.80;;;;;;5064308;27;45211;-77
2022/12/21 08:34:19;;;;;;;1.38;1.27;;;17.10;48.70;;;;;;5064406;27;45457;-78
2022/12/21 08:36:46;;;;;;;1.58;1.48;;;17.10;48.80;;;;;;5062684;27;46971;-78
2022/12/21 08:39:12;;;;;;;1.52;1.42;;;17.10;48.80;;;;;;5064030;28;45292;-78
2022/12/21 08:41:41;;;;;;;1.40;1.30;;;17.10;48.80;;;;;;5064152;28;45381;-78
2022/12/21 08:44:08;;;;;;;1.48;1.38;;;17.10;48.80;;;;;;5064345;27;45233;-78
2022/12/21 08:46:34;;;;;;;2.33;1.50;;;17.10;48.80;;;;;;5064158;28;46153;-78
2022/12/21 08:49:02;;;;;;;1.52;1.42;;;17.10;48.80;;;;;;5064597;27;45301;-77
2022/12/21 08:51:29;;;;;;;1.52;1.42;;;17.10;48.80;;;;;;5064029;27;45320;-78
2022/12/21 08:53:55;;;;;;;1.70;1.60;;;17.00;48.90;;;;;;5061743;28;45270;-78
2022/12/21 08:56:23;;;;;;;1.80;1.70;;;17.00;48.90;;;;;;5061347;28;46307;-78
2022/12/21 08:58:51;;;;;;;2.17;1.70;;;17.00;48.90;;;;;;5063725;28;45196;-78
2022/12/21 09:01:19;;;;;;;1.70;1.60;;;17.00;49.00;;;;;;5063305;27;45407;-76
2022/12/21 09:03:45;;;;;;;1.80;1.70;;;17.00;48.90;;;;;;5063596;27;45607;-76
2022/12/21 09:06:13;;;;;;;2.65;1.70;;;17.00;49.00;;;;;;5063607;27;46877;-76
2022/12/21 09:08:40;;;;;;;2.58;2.38;;;17.00;49.00;;;;;;5064083;27;45183;-77
2022/12/21 09:11:08;;;;;;;2.38;1.92;;;17.00;49.10;;;;;;5063626;28;45332;-76
2022/12/21 09:13:35;;;;;;;3.58;1.90;;;17.00;49.00;;;;;;5063949;28;45365;-76
2022/12/21 09:16:04;;;;;;;1.80;1.70;;;17.00;49.10;;;;;;5065321;27;47838;-76
2022/12/21 09:18:31;;;;;;;2.38;2.17;;;17.00;49.10;;;;;;5066707;27;45289;-76
2022/12/21 09:21:01;;;;;;;2.22;1.90;;;17.00;49.00;;;;;;5066742;28;45304;-79
2022/12/21 09:23:28;;;;;;;2.03;1.75;;;17.00;49.00;;;;;;5066959;27;45175;-78
2022/12/21 09:25:54;;;;;;;4.05;2.10;;;17.00;49.00;;;;;;5066240;27;46648;-78
2022/12/21 09:28:21;;;;;;;2.03;1.70;;;17.00;49.00;;;;;;5066278;27;45275;-78
2022/12/21 09:30:48;;;;;;;2.03;1.73;;;17.00;49.00;;;;;;5064077;28;45246;-78
2022/12/21 09:33:16;;;;;;;2.05;1.85;;;17.00;49.00;;;;;;5066656;28;45439;-78
2022/12/21 09:35:43;;;;;;;2.10;1.90;;;17.00;49.70;;;;;;5066189;27;45170;-78
2022/12/21 09:38:10;;;;;;;2.75;2.05;;;17.00;49.10;;;;;;5066256;28;45145;-78
2022/12/21 09:40:37;;;;;;;2.33;2.05;;;17.00;49.10;;;;;;5066563;28;45244;-78
2022/12/21 09:43:07;;;;;;;3.30;2.13;;;17.00;49.10;;;;;;5066491;27;45301;-79
2022/12/21 09:45:43;;;;;;;2.58;1.98;;;17.10;49.20;;;;;;5066055;27;46357;-76
2022/12/21 09:48:11;;;;;;;4.05;1.88;;;17.10;49.60;;;;;;5066481;28;45191;-78
2022/12/21 09:50:47;;;;;;;1.83;1.67;;;17.10;49.00;;;;;;5065584;28;45342;-79
2022/12/21 09:53:18;;;;;;;2.33;2.13;;;17.10;49.10;;;;;;5065714;27;45455;-76
2022/12/21 09:55:46;;;;;;;2.05;1.83;;;17.10;49.10;;;;;;5065738;28;45224;-78
2022/12/21 09:58:14;;;;;;;2.30;1.80;;;17.10;49.10;;;;;;5066102;28;45364;-78
2022/12/21 10:00:41;;;;;;;2.30;2.10;;;17.10;49.10;;;;;;5066447;27;45334;-78
2022/12/21 10:03:25;;;;;;;2.28;2.00;;;17.10;49.70;;;;;;5066531;28;45247;-78
2022/12/21 10:06:07;;;;;;;2.25;2.05;;;17.10;49.20;;;;;;5061917;27;45403;-78
2022/12/21 10:09:04;;;;;;;2.13;1.83;;;17.10;49.20;;;;;;5066012;28;45376;-75
2022/12/21 10:11:38;;;;;;;4.28;2.35;;;17.10;49.10;;;;;;5019915;28;45318;-73
2022/12/21 10:14:10;;;;;;;3.17;2.00;;;17.10;49.10;;;;;;5065431;28;45298;-77
2022/12/21 10:16:41;;;;;;;2.53;2.08;;;17.10;49.10;;;;;;5065415;27;45469;-79
2022/12/21 10:19:12;;;;;;;2.75;2.35;;;17.10;49.10;;;;;;5066420;27;45552;-77
2022/12/21 10:21:44;;;;;;;1.98;1.77;;;17.10;49.10;;;;;;5066157;28;45288;-79
2022/12/21 10:24:19;;;;;;;2.55;2.20;;;17.10;49.10;;;;;;5066137;27;45232;-79
2022/12/21 10:26:46;;;;;;;4.13;2.00;;;17.20;49.10;;;;;;5065187;28;45203;-77
2022/12/21 10:29:13;;;;;;;2.80;2.20;;;17.20;49.10;;;;;;5065771;28;45502;-78
2022/12/21 10:31:43;;;;;;;2.50;1.90;;;17.20;49.20;;;;;;5065986;28;45452;-77
2022/12/21 10:34:15;;;;;;;2.10;1.90;;;17.20;49.10;;;;;;5066194;27;45143;-79
2022/12/21 10:36:43;;;;;;;3.53;2.30;;;17.20;49.10;;;;;;5065947;28;45386;-78
2022/12/21 10:39:12;;;;;;;2.33;2.13;;;17.20;49.10;;;;;;5063158;28;45231;-79
2022/12/21 10:41:40;;;;;;;2.70;1.90;;;17.20;49.70;;;;;;5065890;27;45324;-79
2022/12/21 10:44:09;;;;;;;2.55;2.35;;;17.30;49.10;;;;;;5066002;27;45366;-79
2022/12/21 10:46:37;;;;;;;2.55;2.20;;;17.30;49.00;;;;;;5065959;28;46551;-79
2022/12/21 10:49:11;;;;;;;3.05;2.35;;;17.40;48.80;;;;;;5065691;28;45394;-80
2022/12/21 10:51:38;;;;;;;3.13;2.15;;;17.50;48.70;;;;;;5065739;27;45197;-79
2022/12/21 10:54:08;;;;;;;2.40;2.20;;;17.60;48.60;;;;;;5065821;28;45410;-79
2022/12/21 10:56:36;;;;;;;3.13;2.38;;;17.60;48.30;;;;;;5065457;27;46351;-79
2022/12/21 10:59:07;;;;;;;3.20;2.13;;;17.70;48.10;;;;;;5065557;28;45246;-79
2022/12/21 11:01:34;;;;;;;2.60;2.15;;;17.80;47.90;;;;;;5065810;28;45176;-79
2022/12/21 11:04:10;;;;;;;2.42;2.10;;;17.80;47.80;;;;;;5065900;28;45185;-79
2022/12/21 11:06:37;;;;;;;2.40;2.20;;;17.90;47.80;;;;;;5065678;28;45374;-78
2022/12/21 11:09:25;;;;;;;2.38;2.17;;;17.90;47.70;;;;;;5065158;28;45362;-78
2022/12/21 11:11:53;;;;;;;2.97;2.08;;;18.00;47.70;;;;;;5065507;28;45277;-78
2022/12/21 11:14:20;;;;;;;3.60;2.00;;;18.00;47.70;;;;;;5065433;28;45185;-79
2022/12/21 11:16:47;;;;;;;2.83;2.08;;;18.10;47.70;;;;;;5065084;28;45212;-76
2022/12/21 11:19:15;;;;;;;2.17;1.98;;;18.20;47.80;;;;;;5065136;28;45401;-77
2022/12/21 11:21:44;;;;;;;2.42;2.22;;;18.20;47.70;;;;;;5065389;27;45253;-72
2022/12/21 11:24:14;;;;;;;9.32;2.90;;;18.30;47.70;;;;;;5059141;27;45390;-72
2022/12/21 11:26:42;;;;;;;9.80;2.58;;;18.40;49.20;;;;;;5064443;27;46383;-74
2022/12/21 11:29:16;;;;;;;2.35;2.10;;;18.50;49.80;;;;;;5065236;28;45273;-76
2022/12/21 11:31:43;;;;;;;3.00;2.30;;;18.60;50.00;;;;;;5064969;27;45363;-75
2022/12/21 11:34:33;;;;;;;3.05;2.40;;;18.60;49.80;;;;;;5065248;28;45135;-75
2022/12/21 11:37:02;;;;;;;2.22;2.00;;;18.60;50.00;;;;;;5065009;28;47622;-76
2022/12/21 11:39:30;;;;;;;3.33;2.13;;;18.70;50.00;;;;;;5060973;28;45447;-77
2022/12/21 11:41:57;;;;;;;3.80;2.00;;;18.70;50.00;;;;;;5050566;28;45315;-76
2022/12/21 11:44:25;;;;;;;4.10;2.10;;;18.60;50.10;;;;;;5044966;28;45187;-75
2022/12/21 11:47:02;;;;;;;3.72;1.95;;;18.40;50.40;;;;;;5044495;28;47064;-75
2022/12/21 11:49:44;;;;;;;6.57;2.00;;;18.40;50.90;;;;;;5049695;28;45443;-75
2022/12/21 11:52:14;;;;;;;3.92;1.85;;;18.30;50.90;;;;;;5044426;28;45402;-75
2022/12/21 11:54:49;;;;;;;2.22;1.58;;;18.30;50.60;;;;;;5044795;28;45355;-75
2022/12/21 11:57:23;;;;;;;3.38;1.50;;;18.20;50.90;;;;;;5044738;28;48209;-74
2022/12/21 11:59:58;;;;;;;4.70;2.08;;;18.20;51.20;;;;;;5044049;27;45289;-76
2022/12/21 12:02:41;;;;;;;3.72;1.75;;;18.10;51.20;;;;;;5045063;28;45256;-75
2022/12/21 12:05:15;;;;;;;2.25;1.50;;;18.00;51.30;;;;;;5064402;28;45380;-75
2022/12/21 12:07:51;;;;;;;4.50;1.90;;;18.00;51.30;;;;;;5064055;28;45327;-75
2022/12/21 12:10:42;;;;;;;4.00;1.73;;;18.00;52.00;;;;;;5064230;28;45427;-75
2022/12/21 12:13:16;;;;;;;4.97;1.45;;;18.00;51.60;;;;;;5066488;27;45145;-76
2022/12/21 12:15:46;;;;;;;3.78;1.77;;;17.90;51.50;;;;;;5064954;28;45186;-75
2022/12/21 12:18:34;;;;;;;3.42;1.80;;;17.90;51.50;;;;;;5064197;28;46961;-75
2022/12/21 12:21:22;;;;;;;2.85;1.70;;;17.90;51.50;;;;;;5064319;28;45243;-75
2022/12/21 12:23:54;;;;;;;2.00;1.55;;;17.80;51.70;;;;;;5076349;27;45534;-75
2022/12/21 12:26:24;;;;;;;2.22;1.60;;;17.80;51.50;;;;;;5063760;28;45522;-75
2022/12/21 12:29:06;;;;;;;1.70;1.60;;;17.80;51.50;;;;;;5064056;27;46380;-75
2022/12/21 12:31:42;;;;;;;3.15;1.55;;;17.80;51.40;;;;;;5064285;28;45321;-76
2022/12/21 12:34:24;;;;;;;1.95;1.70;;;17.80;51.50;;;;;;5064302;27;45194;-76
2022/12/21 12:36:55;;;;;;;2.92;1.90;;;17.80;51.60;;;;;;5064282;27;45244;-76
2022/12/21 12:39:26;;;;;;;2.65;1.70;;;17.70;51.40;;;;;;5063966;27;45355;-76
2022/12/21 12:41:57;;;;;;;2.70;1.80;;;17.70;51.30;;;;;;5061203;28;45352;-76
2022/12/21 12:44:29;;;;;;;3.60;1.95;;;17.70;51.60;;;;;;5064180;28;45247;-76
2022/12/21 12:47:01;;;;;;;2.92;1.80;;;17.70;51.30;;;;;;5064196;28;44786;-76
2022/12/21 12:49:50;;;;;;;6.82;1.60;;;17.70;51.30;;;;;;5062456;28;46393;-76
2022/12/21 12:52:24;;;;;;;2.17;1.70;;;17.70;51.10;;;;;;5065478;27;45223;-76
2022/12/21 12:54:54;;;;;;;1.60;1.50;;;17.70;51.20;;;;;;5063961;28;45352;-76
2022/12/21 12:57:25;;;;;;;3.00;1.73;;;17.70;51.70;;;;;;5063898;27;45327;-75
2022/12/21 12:59:54;;;;;;;5.13;2.00;;;17.70;51.20;;;;;;5063427;28;45768;-76
2022/12/21 13:02:28;;;;;;;1.70;1.60;;;17.70;51.20;;;;;;5062874;28;45312;-76
2022/12/21 13:05:18;;;;;;;2.80;1.88;;;17.70;51.20;;;;;;5063798;28;45219;-76
2022/12/21 13:07:49;;;;;;;2.65;1.70;;;17.70;51.20;;;;;;5064084;28;45260;-76
2022/12/21 13:10:18;;;;;;;2.90;1.83;;;17.70;51.20;;;;;;5063079;28;45453;-76
2022/12/21 13:12:48;;;;;;;2.53;1.95;;;17.70;51.20;;;;;;5063087;27;45542;-75
2022/12/21 13:15:17;;;;;;;2.63;1.90;;;17.70;51.20;;;;;;5063371;27;45261;-76